Time;durP1;ratioP1;P1;durP2;ratioP2;P2;SDS_P1;SDS_P2;PMS_P1;PMS_P2;Temp;Humidity;BMP_temperature;BMP_pressure;BME280_temperature;BME280_humidity;BME280_pressure;Samples;Min_cycle;Max_cycle;Signal;HPM_P1;HPM_P2
2022/10/18 00:00:33;;;;;;;34.28;18.13;;;16.00;99.90;;;;;;5041523;28;20551;-87
2022/10/18 00:02:58;;;;;;;96.28;22.60;;;16.00;99.90;;;;;;5057707;28;20123;-87
2022/10/18 00:05:24;;;;;;;31.67;18.15;;;16.00;99.90;;;;;;5058251;28;20461;-87
2022/10/18 00:07:50;;;;;;;35.45;16.88;;;16.00;99.90;;;;;;5074397;28;20020;-87
2022/10/18 00:10:15;;;;;;;36.55;16.75;;;16.00;99.90;;;;;;5041183;28;20485;-87
2022/10/18 00:12:41;;;;;;;34.35;18.55;;;16.00;99.90;;;;;;5058074;28;20024;-87
2022/10/18 00:15:07;;;;;;;49.97;18.75;;;16.00;99.90;;;;;;5040885;28;20028;-86
2022/10/18 00:17:34;;;;;;;32.53;17.45;;;16.10;99.90;;;;;;5057562;28;20388;-87
2022/10/18 00:20:00;;;;;;;71.45;21.15;;;16.10;99.90;;;;;;5058095;28;20033;-87
2022/10/18 00:22:26;;;;;;;30.90;16.70;;;16.10;99.90;;;;;;5074886;28;20027;-87
2022/10/18 00:24:52;;;;;;;50.20;18.15;;;16.10;99.90;;;;;;5041607;28;20145;-86
2022/10/18 00:27:18;;;;;;;38.70;18.42;;;16.10;99.90;;;;;;5074750;28;20388;-86
2022/10/18 00:29:43;;;;;;;96.72;21.90;;;16.10;99.90;;;;;;5074217;28;20023;-88
2022/10/18 00:32:10;;;;;;;55.25;19.75;;;16.00;99.90;;;;;;5057721;28;20048;-88
2022/10/18 00:34:38;;;;;;;41.88;18.63;;;16.10;99.90;;;;;;5040599;28;20021;-88
2022/10/18 00:37:05;;;;;;;46.17;19.27;;;16.00;99.90;;;;;;5057077;28;20025;-88
2022/10/18 00:39:31;;;;;;;73.70;20.83;;;16.10;99.90;;;;;;5073626;28;20036;-88
2022/10/18 00:41:56;;;;;;;50.08;19.10;;;16.10;99.90;;;;;;5073801;28;20392;-88
2022/10/18 00:44:25;;;;;;;40.67;19.33;;;16.10;99.90;;;;;;5056853;28;20067;-89
2022/10/18 00:46:54;;;;;;;109.45;22.88;;;16.10;99.90;;;;;;5074113;28;20055;-88
2022/10/18 00:49:33;;;;;;;53.38;20.08;;;16.10;99.90;;;;;;5073525;28;20021;-88
2022/10/18 00:52:04;;;;;;;65.13;19.45;;;16.10;99.90;;;;;;5073395;28;20028;-88
2022/10/18 00:54:33;;;;;;;57.70;19.27;;;16.00;99.90;;;;;;5074579;28;20016;-88
2022/10/18 00:57:00;;;;;;;67.00;20.30;;;16.00;99.90;;;;;;5073239;28;20027;-88
2022/10/18 00:59:26;;;;;;;47.88;18.50;;;16.10;99.90;;;;;;5056860;28;20133;-89
2022/10/18 01:01:52;;;;;;;72.18;21.95;;;16.00;99.90;;;;;;5073497;28;20029;-88
2022/10/18 01:04:21;;;;;;;58.15;19.98;;;16.00;99.90;;;;;;5073714;28;20419;-88
2022/10/18 01:07:11;;;;;;;39.80;17.67;;;16.00;99.90;;;;;;5073349;28;20035;-88
2022/10/18 01:09:46;;;;;;;39.95;17.92;;;16.10;99.90;;;;;;5073036;28;20500;-86
2022/10/18 01:12:38;;;;;;;37.47;17.80;;;16.10;99.90;;;;;;5076492;28;20035;-85
2022/10/18 01:15:15;;;;;;;103.63;21.25;;;16.00;99.90;;;;;;5078961;28;20021;-85
2022/10/18 01:17:46;;;;;;;70.13;20.73;;;16.10;99.90;;;;;;5077710;28;20028;-85
2022/10/18 01:20:22;;;;;;;32.33;17.10;;;16.00;99.90;;;;;;5074151;28;20536;-86
2022/10/18 01:22:55;;;;;;;48.00;17.42;;;16.00;99.90;;;;;;5073313;28;20032;-86
2022/10/18 01:25:58;;;;;;;67.47;20.52;;;16.00;99.90;;;;;;5074300;28;20029;-86
2022/10/18 01:28:42;;;;;;;55.17;17.20;;;16.00;99.90;;;;;;5036744;28;20029;-86
2022/10/18 01:31:16;;;;;;;60.38;18.58;;;16.10;99.90;;;;;;5070689;28;20046;-86
2022/10/18 01:33:52;;;;;;;48.75;16.73;;;16.00;99.90;;;;;;5074619;28;20044;-86
2022/10/18 01:36:37;;;;;;;106.50;22.98;;;16.00;99.90;;;;;;5074495;28;20362;-86
2022/10/18 01:39:10;;;;;;;41.83;16.42;;;16.00;99.90;;;;;;5074279;28;20031;-86
2022/10/18 01:41:40;;;;;;;63.05;18.60;;;16.00;99.90;;;;;;5075465;28;20036;-86
2022/10/18 01:44:11;;;;;;;59.50;18.80;;;16.00;99.90;;;;;;5073994;28;20082;-86
2022/10/18 01:46:38;;;;;;;54.00;16.90;;;16.00;99.90;;;;;;5074963;28;20021;-86
2022/10/18 01:49:04;;;;;;;40.90;17.90;;;16.00;99.90;;;;;;5076974;28;20082;-86
2022/10/18 01:51:32;;;;;;;40.58;17.48;;;15.90;99.90;;;;;;5060321;28;20025;-86
2022/10/18 01:53:57;;;;;;;51.55;17.50;;;15.90;99.90;;;;;;5076072;28;20028;-81
2022/10/18 01:56:46;;;;;;;56.80;18.70;;;15.90;99.90;;;;;;5075837;28;20012;-81
2022/10/18 01:59:21;;;;;;;59.13;20.40;;;16.00;99.90;;;;;;5073759;28;20048;-81
2022/10/18 02:01:56;;;;;;;58.70;19.70;;;15.90;99.90;;;;;;5075449;28;20020;-81
2022/10/18 02:04:48;;;;;;;36.47;16.75;;;15.90;99.90;;;;;;5075382;28;20056;-81
2022/10/18 02:07:27;;;;;;;37.50;16.08;;;15.90;99.90;;;;;;5075318;28;20012;-81
2022/10/18 02:10:09;;;;;;;25.33;15.27;;;15.80;99.90;;;;;;5075346;28;20035;-81
2022/10/18 02:12:39;;;;;;;45.08;17.60;;;15.80;99.90;;;;;;5090853;28;20069;-83
2022/10/18 02:15:06;;;;;;;53.35;19.13;;;15.80;99.90;;;;;;5092348;28;20017;-84
2022/10/18 02:17:32;;;;;;;47.03;18.67;;;15.80;99.90;;;;;;5075018;28;20453;-84
2022/10/18 02:20:01;;;;;;;61.75;20.25;;;15.80;99.90;;;;;;5075050;28;20028;-83
2022/10/18 02:22:31;;;;;;;63.75;18.75;;;15.80;99.90;;;;;;5075133;28;20028;-83
2022/10/18 02:25:00;;;;;;;60.88;20.35;;;15.80;99.90;;;;;;5075036;28;20020;-84
2022/10/18 02:27:26;;;;;;;50.88;18.80;;;15.80;99.90;;;;;;5075027;28;20021;-84
2022/10/18 02:29:52;;;;;;;42.35;18.17;;;15.80;99.90;;;;;;5058177;28;20115;-83
2022/10/18 02:32:47;;;;;;;38.22;18.15;;;15.80;99.90;;;;;;5074879;28;20043;-83
2022/10/18 02:35:24;;;;;;;44.33;16.80;;;15.80;99.90;;;;;;5071988;28;20477;-84
2022/10/18 02:37:52;;;;;;;43.42;18.92;;;15.70;99.90;;;;;;5075188;28;20048;-84
2022/10/18 02:40:19;;;;;;;46.83;17.55;;;15.70;99.90;;;;;;5074835;28;20020;-83
2022/10/18 02:42:49;;;;;;;77.00;22.63;;;15.70;99.90;;;;;;5058101;28;20033;-83
2022/10/18 02:45:15;;;;;;;57.47;20.35;;;15.60;99.90;;;;;;5076036;28;20032;-83
2022/10/18 02:47:41;;;;;;;53.10;18.70;;;15.70;99.90;;;;;;5074716;28;20063;-84
2022/10/18 02:50:08;;;;;;;56.90;20.27;;;15.60;99.90;;;;;;5074603;28;20064;-84
2022/10/18 02:52:33;;;;;;;34.45;18.52;;;15.60;99.90;;;;;;5058151;28;20029;-84
2022/10/18 02:55:00;;;;;;;53.05;20.42;;;15.60;99.90;;;;;;5057836;28;20025;-84
2022/10/18 02:57:26;;;;;;;44.65;18.98;;;15.60;99.90;;;;;;5057790;28;20051;-84
2022/10/18 02:59:51;;;;;;;37.78;17.92;;;15.60;99.90;;;;;;5074325;28;20048;-83
2022/10/18 03:02:17;;;;;;;34.50;18.17;;;15.60;99.90;;;;;;5074404;28;20487;-84
2022/10/18 03:04:43;;;;;;;37.60;17.85;;;15.60;99.90;;;;;;5074560;28;20081;-84
2022/10/18 03:07:08;;;;;;;28.00;16.63;;;15.60;99.90;;;;;;5057942;28;20039;-83
2022/10/18 03:09:34;;;;;;;32.35;16.98;;;15.60;99.90;;;;;;5074023;28;20507;-83
2022/10/18 03:11:59;;;;;;;29.15;17.15;;;15.50;99.90;;;;;;5057534;28;20020;-83
2022/10/18 03:14:25;;;;;;;33.13;17.20;;;15.50;99.90;;;;;;5074146;28;20114;-83
2022/10/18 03:16:51;;;;;;;25.52;16.90;;;15.50;99.90;;;;;;5074592;28;20023;-83
2022/10/18 03:19:16;;;;;;;29.10;17.08;;;15.50;99.90;;;;;;5057382;28;20051;-83
2022/10/18 03:21:42;;;;;;;29.15;17.45;;;15.50;99.90;;;;;;5057420;28;20500;-83
2022/10/18 03:24:07;;;;;;;30.90;16.95;;;15.50;99.90;;;;;;5074331;28;20028;-83
2022/10/18 03:26:33;;;;;;;25.83;15.95;;;15.40;99.90;;;;;;5057327;28;20020;-83
2022/10/18 03:28:59;;;;;;;32.65;17.02;;;15.40;99.90;;;;;;5073848;28;20523;-83
2022/10/18 03:31:24;;;;;;;43.28;17.30;;;15.40;99.90;;;;;;5073720;28;20542;-83
2022/10/18 03:33:50;;;;;;;25.05;14.88;;;15.40;99.90;;;;;;5057433;28;20733;-83
2022/10/18 03:36:16;;;;;;;32.35;15.45;;;15.40;99.90;;;;;;5057023;28;20029;-83
2022/10/18 03:38:41;;;;;;;64.60;18.20;;;15.40;99.90;;;;;;5057034;28;20025;-83
2022/10/18 03:41:07;;;;;;;51.22;16.50;;;15.30;99.90;;;;;;5057200;28;20086;-83
2022/10/18 03:43:33;;;;;;;37.25;16.33;;;15.30;99.90;;;;;;5057229;28;20025;-83
2022/10/18 03:45:59;;;;;;;43.05;17.48;;;15.30;99.90;;;;;;5056814;28;20025;-83
2022/10/18 03:48:25;;;;;;;38.58;17.00;;;15.30;99.90;;;;;;5073397;28;20028;-83
2022/10/18 03:50:51;;;;;;;34.58;17.02;;;15.30;99.90;;;;;;5056619;28;20044;-83
2022/10/18 03:53:16;;;;;;;31.45;16.60;;;15.30;99.90;;;;;;5056939;28;20035;-83
2022/10/18 03:55:42;;;;;;;51.67;17.95;;;15.30;99.90;;;;;;5056983;28;20017;-83
2022/10/18 03:58:08;;;;;;;43.85;18.42;;;15.30;99.90;;;;;;5073238;28;20503;-83
2022/10/18 04:00:33;;;;;;;78.68;20.73;;;15.30;99.90;;;;;;5073205;28;20028;-83
2022/10/18 04:02:59;;;;;;;43.92;17.92;;;15.30;99.90;;;;;;5056892;28;20029;-83
2022/10/18 04:05:29;;;;;;;45.42;17.45;;;15.30;99.90;;;;;;5074662;28;20025;-83
2022/10/18 04:07:56;;;;;;;35.08;16.23;;;15.30;99.90;;;;;;5073255;28;20025;-83
2022/10/18 04:10:22;;;;;;;38.03;16.80;;;15.20;99.90;;;;;;5072130;28;20098;-83
2022/10/18 04:12:47;;;;;;;52.53;18.17;;;15.30;99.90;;;;;;5056354;28;20046;-83
2022/10/18 04:15:13;;;;;;;33.53;17.10;;;15.20;99.90;;;;;;5073209;28;20403;-83
2022/10/18 04:17:39;;;;;;;35.95;16.63;;;15.30;99.90;;;;;;5056021;28;20043;-83
2022/10/18 04:20:05;;;;;;;34.03;15.30;;;15.20;99.90;;;;;;5072743;28;20032;-83
2022/10/18 04:22:31;;;;;;;32.40;16.08;;;15.20;99.90;;;;;;5056579;28;20028;-84
2022/10/18 04:24:56;;;;;;;37.42;15.98;;;15.20;99.90;;;;;;5072878;28;20116;-83
2022/10/18 04:27:22;;;;;;;68.72;19.08;;;15.20;99.90;;;;;;5073097;28;20025;-83
2022/10/18 04:29:48;;;;;;;31.55;16.38;;;15.20;99.90;;;;;;5055990;28;20036;-84
2022/10/18 04:32:14;;;;;;;23.30;15.00;;;15.20;99.90;;;;;;5072798;28;20032;-84
2022/10/18 04:34:39;;;;;;;30.70;15.20;;;15.20;99.90;;;;;;5072805;28;20489;-84
2022/10/18 04:37:05;;;;;;;23.40;15.00;;;15.10;99.90;;;;;;5072688;28;20481;-83
2022/10/18 04:39:31;;;;;;;25.10;16.05;;;15.20;99.90;;;;;;5072550;28;20032;-83
2022/10/18 04:41:56;;;;;;;24.92;14.90;;;15.20;99.90;;;;;;5055929;28;20024;-84
2022/10/18 04:44:22;;;;;;;26.15;15.40;;;15.10;99.90;;;;;;5072524;28;20024;-83
2022/10/18 04:46:48;;;;;;;23.52;14.57;;;15.10;99.90;;;;;;5055872;28;20028;-83
2022/10/18 04:49:13;;;;;;;29.88;15.63;;;15.10;99.90;;;;;;5073622;28;20055;-83
2022/10/18 04:51:39;;;;;;;21.52;15.38;;;15.10;99.90;;;;;;5055546;28;20473;-84
2022/10/18 04:54:05;;;;;;;32.22;16.55;;;15.10;99.90;;;;;;5055642;28;20028;-84
2022/10/18 04:56:31;;;;;;;27.90;15.43;;;15.10;99.90;;;;;;5072437;28;20035;-84
2022/10/18 04:58:58;;;;;;;25.63;15.60;;;15.10;99.90;;;;;;5072718;28;20017;-84
2022/10/18 05:01:24;;;;;;;33.45;16.70;;;15.10;99.90;;;;;;5072181;28;20102;-84
2022/10/18 05:03:53;;;;;;;26.90;15.63;;;15.10;99.90;;;;;;5072582;28;20052;-84
2022/10/18 05:06:19;;;;;;;22.67;15.15;;;15.00;99.90;;;;;;5072275;28;20016;-84
2022/10/18 05:08:45;;;;;;;24.08;14.50;;;15.10;99.90;;;;;;5072280;28;20055;-84
2022/10/18 05:11:11;;;;;;;30.23;15.95;;;15.00;99.90;;;;;;5072007;28;20040;-84
2022/10/18 05:13:37;;;;;;;25.42;15.25;;;15.00;99.90;;;;;;5072207;28;20104;-84
2022/10/18 05:16:03;;;;;;;22.70;14.50;;;15.00;99.90;;;;;;5055401;28;20028;-84
2022/10/18 05:18:29;;;;;;;32.28;14.85;;;15.00;99.90;;;;;;5073363;28;20016;-84
2022/10/18 05:20:55;;;;;;;30.67;14.88;;;15.00;99.90;;;;;;5071848;28;20021;-85
2022/10/18 05:23:21;;;;;;;37.60;16.00;;;15.00;99.90;;;;;;5072095;28;20020;-85
2022/10/18 05:25:47;;;;;;;26.95;14.25;;;15.00;99.90;;;;;;5073578;28;20056;-85
2022/10/18 05:28:13;;;;;;;50.45;16.92;;;15.00;99.90;;;;;;5055631;28;20028;-85
2022/10/18 05:30:39;;;;;;;38.88;16.45;;;14.90;99.90;;;;;;5072307;28;20020;-84
2022/10/18 05:33:05;;;;;;;31.63;15.27;;;14.90;99.90;;;;;;5055317;28;20076;-85
2022/10/18 05:35:34;;;;;;;34.95;16.80;;;14.80;99.90;;;;;;5071914;28;20570;-85
2022/10/18 05:38:04;;;;;;;37.95;16.15;;;14.80;99.90;;;;;;5071993;28;20021;-84
2022/10/18 05:40:31;;;;;;;25.83;16.08;;;14.90;99.90;;;;;;5071884;28;20124;-84
2022/10/18 05:42:57;;;;;;;45.20;16.35;;;14.90;99.90;;;;;;5072331;28;20496;-85
2022/10/18 05:45:22;;;;;;;44.78;16.42;;;14.90;99.90;;;;;;5055128;28;20024;-84
2022/10/18 05:47:48;;;;;;;52.70;17.88;;;14.90;99.90;;;;;;5055208;28;20028;-85
2022/10/18 05:50:14;;;;;;;38.42;16.33;;;14.80;99.90;;;;;;5055141;28;20039;-85
2022/10/18 05:52:40;;;;;;;47.58;17.65;;;14.80;99.90;;;;;;5071872;28;20025;-85
2022/10/18 05:55:06;;;;;;;51.50;17.45;;;14.80;99.90;;;;;;5071705;28;20074;-84
2022/10/18 05:57:31;;;;;;;50.95;17.25;;;14.80;99.90;;;;;;5071481;28;20492;-83
2022/10/18 05:59:57;;;;;;;42.08;16.98;;;14.70;99.90;;;;;;5072805;28;20035;-83
2022/10/18 06:02:22;;;;;;;31.52;16.10;;;14.80;99.90;;;;;;5055118;28;20538;-83
2022/10/18 06:04:48;;;;;;;49.08;17.45;;;14.80;99.90;;;;;;5054981;28;20024;-84
2022/10/18 06:07:16;;;;;;;31.77;16.92;;;14.70;99.90;;;;;;5055030;28;20024;-83
2022/10/18 06:09:41;;;;;;;43.28;16.80;;;14.70;99.90;;;;;;5071428;28;20041;-83
2022/10/18 06:12:07;;;;;;;35.40;17.30;;;14.70;99.90;;;;;;5054816;28;20020;-83
2022/10/18 06:14:34;;;;;;;52.60;18.88;;;14.70;99.90;;;;;;5071458;28;20024;-81
2022/10/18 06:16:59;;;;;;;50.05;17.30;;;14.60;99.90;;;;;;5071252;28;20025;-83
2022/10/18 06:19:25;;;;;;;39.88;16.45;;;14.60;99.90;;;;;;5054911;28;20082;-83
2022/10/18 06:21:50;;;;;;;39.78;16.75;;;14.60;99.90;;;;;;5054623;28;20032;-83
2022/10/18 06:24:17;;;;;;;40.50;17.60;;;14.60;99.90;;;;;;5071306;28;20031;-83
2022/10/18 06:26:43;;;;;;;64.80;20.42;;;14.60;99.90;;;;;;5054780;28;20047;-84
2022/10/18 06:29:09;;;;;;;52.00;18.33;;;14.50;99.90;;;;;;5054437;28;20488;-83
2022/10/18 06:31:34;;;;;;;51.13;17.40;;;14.50;99.90;;;;;;5071567;28;20086;-83
2022/10/18 06:34:01;;;;;;;39.28;17.15;;;14.60;99.90;;;;;;5056451;28;20111;-83
2022/10/18 06:36:27;;;;;;;56.30;17.60;;;14.60;99.90;;;;;;5058172;28;20051;-83
2022/10/18 06:38:53;;;;;;;42.20;13.98;;;14.60;99.90;;;;;;5074702;28;20020;-83
2022/10/18 06:41:19;;;;;;;46.70;15.48;;;14.60;99.90;;;;;;5058051;28;20032;-83
2022/10/18 06:43:55;;;;;;;31.65;13.13;;;14.60;99.90;;;;;;5074756;28;20090;-83
2022/10/18 06:46:21;;;;;;;37.45;13.88;;;14.60;99.90;;;;;;5074717;28;20025;-83
2022/10/18 06:48:47;;;;;;;56.28;15.40;;;14.60;99.90;;;;;;5074545;28;20028;-83
2022/10/18 06:51:14;;;;;;;32.40;13.40;;;14.60;99.90;;;;;;5074593;28;20020;-83
2022/10/18 06:53:40;;;;;;;34.67;13.02;;;14.60;99.90;;;;;;5058081;28;20034;-83
2022/10/18 06:56:09;;;;;;;34.20;13.10;;;14.60;99.90;;;;;;5058458;28;20143;-84
2022/10/18 06:58:35;;;;;;;31.20;12.65;;;14.60;99.90;;;;;;5074384;28;20017;-83
2022/10/18 07:01:09;;;;;;;32.60;12.27;;;14.60;99.90;;;;;;5074453;28;20048;-83
2022/10/18 07:03:35;;;;;;;31.25;12.15;;;14.60;99.90;;;;;;5074236;28;20024;-83
2022/10/18 07:06:02;;;;;;;33.35;12.88;;;14.60;99.90;;;;;;5074375;28;20550;-83
2022/10/18 07:08:28;;;;;;;22.13;12.25;;;14.60;99.90;;;;;;5074251;28;20491;-83
2022/10/18 07:10:54;;;;;;;24.00;11.23;;;14.60;99.90;;;;;;5057479;28;20103;-84
2022/10/18 07:13:21;;;;;;;24.15;13.20;;;14.60;99.90;;;;;;5057411;28;20388;-83
2022/10/18 07:15:47;;;;;;;25.98;11.30;;;14.60;99.90;;;;;;5075307;28;20028;-83
2022/10/18 07:18:13;;;;;;;25.17;12.13;;;14.60;99.90;;;;;;5075350;28;20025;-83
2022/10/18 07:20:38;;;;;;;29.85;12.05;;;14.60;99.90;;;;;;5057525;28;20032;-83
2022/10/18 07:23:08;;;;;;;28.77;11.75;;;14.60;99.90;;;;;;5073887;28;20036;-83
2022/10/18 07:25:34;;;;;;;21.48;12.30;;;14.60;99.90;;;;;;5057528;28;20035;-83
2022/10/18 07:28:00;;;;;;;32.03;12.13;;;14.60;99.90;;;;;;5057162;28;20539;-82
2022/10/18 07:30:25;;;;;;;27.30;13.70;;;14.60;99.90;;;;;;5073612;28;20029;-83
2022/10/18 07:32:51;;;;;;;26.88;12.27;;;14.60;99.90;;;;;;5073769;28;20024;-83
2022/10/18 07:35:17;;;;;;;26.63;12.77;;;14.60;99.90;;;;;;5057038;28;20501;-83
2022/10/18 07:37:43;;;;;;;23.88;12.20;;;14.60;99.90;;;;;;5073830;28;20032;-83
2022/10/18 07:40:10;;;;;;;25.42;12.75;;;14.60;99.90;;;;;;5059144;28;20035;-83
2022/10/18 07:42:36;;;;;;;22.63;11.43;;;14.60;99.90;;;;;;5059148;28;20393;-83
2022/10/18 07:45:03;;;;;;;25.15;12.15;;;14.60;99.90;;;;;;5073974;28;20021;-83
2022/10/18 07:47:28;;;;;;;22.27;12.27;;;14.60;99.90;;;;;;5074755;28;20035;-83
2022/10/18 07:49:54;;;;;;;23.90;12.05;;;14.60;99.90;;;;;;5073333;28;20024;-83
2022/10/18 07:52:20;;;;;;;23.08;12.18;;;14.60;99.90;;;;;;5073385;28;20495;-83
2022/10/18 07:54:45;;;;;;;24.70;11.45;;;14.60;99.90;;;;;;5056839;28;20024;-84
2022/10/18 07:57:11;;;;;;;21.23;10.75;;;14.50;99.90;;;;;;5073381;28;20020;-83
2022/10/18 07:59:37;;;;;;;23.30;11.50;;;14.60;99.90;;;;;;5056914;28;20094;-84
2022/10/18 08:02:03;;;;;;;20.95;11.35;;;14.50;99.90;;;;;;5056669;28;20036;-83
2022/10/18 08:04:29;;;;;;;22.35;12.18;;;14.50;99.90;;;;;;5073267;28;20392;-83
2022/10/18 08:06:54;;;;;;;20.10;12.15;;;14.50;99.90;;;;;;5073112;28;20067;-83
2022/10/18 08:09:20;;;;;;;23.48;12.23;;;14.50;99.90;;;;;;5056959;28;20476;-83
2022/10/18 08:11:46;;;;;;;20.77;11.70;;;14.50;99.90;;;;;;5074168;28;20059;-83
2022/10/18 08:14:11;;;;;;;20.00;11.68;;;14.50;99.90;;;;;;5056310;28;20032;-83
2022/10/18 08:16:37;;;;;;;19.65;11.98;;;14.50;99.90;;;;;;5072951;28;20028;-83
2022/10/18 08:19:03;;;;;;;20.27;11.77;;;14.50;99.90;;;;;;5072758;28;20534;-83
2022/10/18 08:21:28;;;;;;;22.63;12.93;;;14.50;99.90;;;;;;5073286;28;20032;-84
2022/10/18 08:23:54;;;;;;;22.58;11.75;;;14.50;99.90;;;;;;5072731;28;20082;-84
2022/10/18 08:26:21;;;;;;;20.55;10.30;;;14.60;99.90;;;;;;5068484;28;20186;-83
2022/10/18 08:28:47;;;;;;;18.80;10.55;;;14.60;99.90;;;;;;5072503;28;20047;-83
2022/10/18 08:31:19;;;;;;;17.33;10.43;;;14.60;99.90;;;;;;5055699;28;20029;-83
2022/10/18 08:33:46;;;;;;;21.83;11.40;;;14.60;99.90;;;;;;5073308;28;20021;-82
2022/10/18 08:36:13;;;;;;;17.20;10.68;;;14.70;99.90;;;;;;5072636;28;20024;-83
2022/10/18 08:38:40;;;;;;;19.88;11.48;;;14.70;99.90;;;;;;5072399;28;20070;-83
2022/10/18 08:41:36;;;;;;;24.42;11.00;;;14.70;99.90;;;;;;5076429;28;20024;-83
2022/10/18 08:44:25;;;;;;;22.60;11.27;;;14.80;99.90;;;;;;5089157;28;20066;-83
2022/10/18 08:46:57;;;;;;;19.60;10.57;;;14.80;99.90;;;;;;5061509;28;20127;-83
2022/10/18 08:49:38;;;;;;;18.33;8.00;;;14.80;99.90;;;;;;5072253;28;20171;-83
2022/10/18 08:52:23;;;;;;;18.55;8.45;;;14.80;99.90;;;;;;5072378;28;20102;-83
2022/10/18 08:55:21;;;;;;;13.77;7.20;;;14.80;99.90;;;;;;5072091;28;20144;-83
2022/10/18 08:57:48;;;;;;;18.52;7.70;;;14.90;99.90;;;;;;5071765;28;20073;-82
2022/10/18 09:00:15;;;;;;;15.15;7.55;;;14.90;99.90;;;;;;5072550;28;20070;-83
2022/10/18 09:03:02;;;;;;;18.17;6.43;;;14.90;99.90;;;;;;5055533;28;20464;-84
2022/10/18 09:05:44;;;;;;;17.05;6.25;;;14.90;99.90;;;;;;5072223;28;20480;-84
2022/10/18 09:08:40;;;;;;;15.27;6.35;;;15.00;99.90;;;;;;5071914;28;20056;-83
2022/10/18 09:11:32;;;;;;;15.32;6.07;;;15.00;99.90;;;;;;5072092;28;20044;-83
2022/10/18 09:14:19;;;;;;;11.73;5.82;;;15.00;99.90;;;;;;5072849;28;20139;-83
2022/10/18 09:16:59;;;;;;;11.75;5.38;;;15.10;99.90;;;;;;5072449;28;20051;-86
2022/10/18 09:19:43;;;;;;;12.40;5.55;;;15.20;99.90;;;;;;5072353;28;20016;-85
2022/10/18 09:22:13;;;;;;;16.42;5.55;;;15.20;99.90;;;;;;5073637;28;20024;-85
2022/10/18 09:25:00;;;;;;;11.70;5.68;;;15.30;99.90;;;;;;5072296;28;20052;-86
2022/10/18 09:27:44;;;;;;;11.35;4.38;;;15.30;99.90;;;;;;5072217;28;20023;-86
2022/10/18 09:30:28;;;;;;;11.18;4.95;;;15.40;99.90;;;;;;5072618;28;20028;-86
2022/10/18 09:33:12;;;;;;;14.52;4.38;;;15.60;99.90;;;;;;5072207;28;20067;-86
2022/10/18 09:35:54;;;;;;;8.35;3.78;;;15.80;99.90;;;;;;5072400;28;20074;-86
2022/10/18 09:38:23;;;;;;;11.55;3.33;;;16.10;99.90;;;;;;5072208;28;20017;-86
2022/10/18 09:41:03;;;;;;;12.15;2.40;;;16.40;99.90;;;;;;5072969;28;20024;-86
2022/10/18 09:43:44;;;;;;;10.40;2.17;;;16.90;99.90;;;;;;5074804;28;20028;-86
2022/10/18 09:46:11;;;;;;;6.20;1.25;;;17.50;99.90;;;;;;5077512;28;20020;-87
2022/10/18 09:48:48;;;;;;;7.43;1.10;;;18.20;99.90;;;;;;5073519;28;20036;-87
2022/10/18 09:51:22;;;;;;;7.43;1.15;;;19.00;99.90;;;;;;5074364;28;20116;-86
2022/10/18 09:54:00;;;;;;;5.57;1.02;;;19.80;99.90;;;;;;5072784;28;20020;-87
2022/10/18 09:56:31;;;;;;;3.75;0.50;;;20.60;99.90;;;;;;5072555;28;20021;-84
2022/10/18 09:58:57;;;;;;;5.80;0.70;;;21.40;99.90;;;;;;5072437;28;20086;-80
2022/10/18 10:01:26;;;;;;;4.22;0.60;;;22.20;99.90;;;;;;5055072;28;20477;-82
2022/10/18 10:03:52;;;;;;;6.25;0.90;;;22.90;99.90;;;;;;5071664;28;20027;-81
2022/10/18 10:06:30;;;;;;;4.05;0.70;;;23.60;99.90;;;;;;5073376;28;20032;-84
2022/10/18 10:09:00;;;;;;;4.35;0.50;;;24.20;99.90;;;;;;5074987;28;20113;-85
2022/10/18 10:11:27;;;;;;;3.22;0.90;;;24.90;99.90;;;;;;5076655;28;20049;-84
2022/10/18 10:13:57;;;;;;;5.78;1.00;;;25.40;99.10;;;;;;5076354;28;20021;-84
2022/10/18 10:16:25;;;;;;;6.90;0.98;;;25.90;94.00;;;;;;5075721;28;20111;-83
2022/10/18 10:18:53;;;;;;;2.63;0.50;;;26.30;90.80;;;;;;5077435;28;20024;-85
2022/10/18 10:21:19;;;;;;;3.78;0.70;;;26.70;87.20;;;;;;5076084;28;20029;-84
2022/10/18 10:23:52;;;;;;;5.28;0.88;;;27.10;82.40;;;;;;5076086;28;20021;-85
2022/10/18 10:26:21;;;;;;;;;;;27.60;77.70;;;;;;5076041;28;20025;-85
2022/10/18 10:28:47;;;;;;;4.63;0.70;;;28.00;78.00;;;;;;5076014;28;19904;-84
2022/10/18 10:31:18;;;;;;;7.07;1.00;;;28.30;77.90;;;;;;5075217;28;20101;-84
2022/10/18 10:33:46;;;;;;;4.22;0.63;;;28.60;71.90;;;;;;5075115;28;20020;-84
2022/10/18 10:36:20;;;;;;;4.72;0.85;;;28.80;68.00;;;;;;5075376;28;20111;-84
2022/10/18 10:39:00;;;;;;;5.78;0.75;;;29.00;64.30;;;;;;5075490;28;20107;-83
2022/10/18 10:41:26;;;;;;;3.35;0.70;;;29.10;62.10;;;;;;5075446;28;20425;-84
2022/10/18 10:43:52;;;;;;;4.80;0.85;;;29.20;60.00;;;;;;5075116;28;20069;-83
2022/10/18 10:46:19;;;;;;;5.35;0.70;;;29.30;58.70;;;;;;5075155;28;20021;-84
2022/10/18 10:48:57;;;;;;;3.38;0.70;;;29.50;57.80;;;;;;5075431;28;20032;-83
2022/10/18 10:51:32;;;;;;;3.53;0.60;;;29.70;57.80;;;;;;5075157;28;20032;-83
2022/10/18 10:54:03;;;;;;;5.68;0.75;;;30.00;56.30;;;;;;5074713;28;20081;-84
2022/10/18 10:56:48;;;;;;;5.57;0.73;;;30.30;56.50;;;;;;5074955;28;20017;-83
2022/10/18 10:59:17;;;;;;;6.25;0.80;;;30.50;55.00;;;;;;5074709;28;20388;-84
2022/10/18 11:01:46;;;;;;;4.05;0.70;;;30.50;52.20;;;;;;5074697;28;20119;-83
2022/10/18 11:04:27;;;;;;;4.00;0.75;;;30.40;50.10;;;;;;5074734;28;20116;-83
2022/10/18 11:07:03;;;;;;;5.32;0.73;;;30.40;48.80;;;;;;5074246;28;20025;-83
2022/10/18 11:09:49;;;;;;;7.32;0.80;;;30.40;49.10;;;;;;5074417;28;20493;-84
2022/10/18 11:12:36;;;;;;;6.68;0.90;;;30.50;48.50;;;;;;5075990;28;20029;-83
2022/10/18 11:15:10;;;;;;;6.32;0.88;;;30.60;47.70;;;;;;5074487;28;20024;-84
2022/10/18 11:17:55;;;;;;;2.53;0.50;;;30.60;47.90;;;;;;5074269;28;20050;-84
2022/10/18 11:20:34;;;;;;;4.43;1.00;;;30.70;47.10;;;;;;5075125;28;20036;-82
2022/10/18 11:23:15;;;;;;;3.38;0.60;;;30.70;47.60;;;;;;5074173;28;20094;-83
2022/10/18 11:26:12;;;;;;;5.00;0.90;;;30.70;46.50;;;;;;5074071;28;20021;-83
2022/10/18 11:28:56;;;;;;;4.50;0.98;;;30.90;46.00;;;;;;5075329;28;20052;-83
2022/10/18 11:31:36;;;;;;;4.63;0.68;;;31.00;46.90;;;;;;5074091;28;20388;-82
2022/10/18 11:34:35;;;;;;;4.47;0.80;;;31.10;46.90;;;;;;5073793;28;20542;-83
2022/10/18 11:37:10;;;;;;;5.70;0.77;;;31.40;46.00;;;;;;5073833;28;20024;-84
2022/10/18 11:39:56;;;;;;;7.13;1.27;;;31.40;45.60;;;;;;5073757;28;20033;-84
2022/10/18 11:42:34;;;;;;;7.20;0.90;;;31.50;45.10;;;;;;5073901;28;20024;-83
2022/10/18 11:45:21;;;;;;;7.60;1.30;;;31.70;45.00;;;;;;5074052;28;20025;-83
2022/10/18 11:48:02;;;;;;;3.95;0.93;;;31.80;44.50;;;;;;5073596;28;20020;-83
2022/10/18 11:50:52;;;;;;;5.15;1.13;;;31.90;44.10;;;;;;5073872;28;20029;-83
2022/10/18 11:53:35;;;;;;;3.38;0.90;;;32.00;43.90;;;;;;5073484;28;20024;-83
2022/10/18 11:56:03;;;;;;;7.18;1.13;;;32.00;43.80;;;;;;5085820;28;20034;-85
2022/10/18 11:59:04;;;;;;;4.00;0.80;;;32.00;43.30;;;;;;5079200;28;20051;-83
2022/10/18 12:02:15;;;;;;;4.32;0.70;;;32.00;42.60;;;;;;5073457;28;20056;-80
2022/10/18 12:05:03;;;;;;;4.80;0.98;;;32.00;42.40;;;;;;5073456;28;20020;-79
2022/10/18 12:07:40;;;;;;;6.05;1.05;;;32.20;43.00;;;;;;5073798;28;20070;-79
2022/10/18 12:10:14;;;;;;;5.68;0.98;;;32.30;42.20;;;;;;5073119;28;20048;-80
2022/10/18 12:13:01;;;;;;;6.35;1.20;;;32.30;42.10;;;;;;5073021;28;20020;-80
2022/10/18 12:15:29;;;;;;;3.72;0.73;;;32.30;41.40;;;;;;5072977;28;20021;-79
2022/10/18 12:17:59;;;;;;;7.10;1.15;;;32.40;41.50;;;;;;5073146;28;20082;-79
2022/10/18 12:20:40;;;;;;;3.83;0.65;;;32.30;41.40;;;;;;5072855;28;20020;-80
2022/10/18 12:23:16;;;;;;;6.28;1.20;;;32.40;41.40;;;;;;5072810;28;20032;-81
2022/10/18 12:25:47;;;;;;;5.80;0.93;;;32.40;41.70;;;;;;5072828;28;20101;-81
2022/10/18 12:28:46;;;;;;;6.20;0.85;;;32.50;41.60;;;;;;5072817;28;20012;-80
2022/10/18 12:31:39;;;;;;;4.65;0.82;;;32.50;41.30;;;;;;5073253;28;20416;-85
2022/10/18 12:34:32;;;;;;;6.07;1.05;;;32.60;41.10;;;;;;5073888;28;20021;-86
2022/10/18 12:37:21;;;;;;;4.68;0.90;;;32.80;40.70;;;;;;5073674;28;20056;-87
2022/10/18 12:39:55;;;;;;;5.13;0.80;;;32.80;40.10;;;;;;5073662;28;20024;-86
2022/10/18 12:42:24;;;;;;;4.05;0.80;;;32.80;40.70;;;;;;5072484;28;20070;-83
2022/10/18 12:45:02;;;;;;;4.50;0.65;;;32.80;40.90;;;;;;5072479;28;20523;-82
2022/10/18 12:47:31;;;;;;;5.38;0.80;;;32.70;39.70;;;;;;5055788;28;20565;-85
2022/10/18 12:50:24;;;;;;;4.40;0.50;;;32.70;39.30;;;;;;5056007;28;20448;-84
2022/10/18 12:53:08;;;;;;;4.45;0.85;;;32.60;38.50;;;;;;5073620;28;20035;-82